Main page
Satellite images 15-day forecastsClimateMarine weather Cyclones Lightning AirportsFAQ Newsletter About
Weather : Europe Africa North America South America Asia Australia-Oceania Others
Languages Contact

Pontianak, Indonesia

latitude: 00-09S, longitude: 109-24E, elevation: 3 m


METAR: WIOO 231430Z 00000KT 6000 SCT012 26/25 Q1012
TAF: missing

Time: 23:29 (16:29 UTC)

Current weather observation

The report was made 1 hour and 59 minutes ago, at 14:30 UTC
Wind calm
Temperature 26°C
Humidity 94%
Pressure 1012 hPa
Visibility: 6000 m
Scattered clouds at a height of 1200 ft

Change units
The information on this site is subject to a disclaimer
Weather : Europe Africa North America South America Asia Australia-Oceania Others
Satellite images 15-day forecastsClimateMarine weather Cyclones Lightning AirportsFAQ Languages Contact Newsletter About